sensor_id;sensor_type;location;lat;lon;timestamp;temperature;humidity
16970;DHT22;8601;48.718;8.992;2022-07-30T00:02:20;16.80;99.90
16970;DHT22;8601;48.718;8.992;2022-07-30T00:04:48;16.80;99.90
16970;DHT22;8601;48.718;8.992;2022-07-30T00:07:15;16.80;99.90
16970;DHT22;8601;48.718;8.992;2022-07-30T00:09:43;16.80;99.90
16970;DHT22;8601;48.718;8.992;2022-07-30T00:12:10;16.80;99.90
16970;DHT22;8601;48.718;8.992;2022-07-30T00:14:37;16.70;99.90
16970;DHT22;8601;48.718;8.992;2022-07-30T00:17:04;16.90;99.90
16970;DHT22;8601;48.718;8.992;2022-07-30T00:19:32;16.90;99.90
16970;DHT22;8601;48.718;8.992;2022-07-30T00:21:59;17.00;99.90
16970;DHT22;8601;48.718;8.992;2022-07-30T00:24:26;17.00;99.90
16970;DHT22;8601;48.718;8.992;2022-07-30T00:26:55;17.10;99.90
16970;DHT22;8601;48.718;8.992;2022-07-30T00:29:23;17.10;99.90
16970;DHT22;8601;48.718;8.992;2022-07-30T00:31:50;17.20;99.90
16970;DHT22;8601;48.718;8.992;2022-07-30T00:34:16;17.20;99.90
16970;DHT22;8601;48.718;8.992;2022-07-30T00:36:43;17.10;99.90
16970;DHT22;8601;48.718;8.992;2022-07-30T00:39:10;17.00;99.90
16970;DHT22;8601;48.718;8.992;2022-07-30T00:41:52;17.00;99.90
16970;DHT22;8601;48.718;8.992;2022-07-30T00:44:21;17.10;99.90
16970;DHT22;8601;48.718;8.992;2022-07-30T00:46:47;17.10;99.90
16970;DHT22;8601;48.718;8.992;2022-07-30T00:49:15;17.10;99.90
16970;DHT22;8601;48.718;8.992;2022-07-30T00:51:42;17.10;99.90
16970;DHT22;8601;48.718;8.992;2022-07-30T00:54:08;17.00;99.90
16970;DHT22;8601;48.718;8.992;2022-07-30T00:56:35;17.00;99.90
16970;DHT22;8601;48.718;8.992;2022-07-30T00:59:02;16.90;99.90
16970;DHT22;8601;48.718;8.992;2022-07-30T01:01:32;17.00;99.90
16970;DHT22;8601;48.718;8.992;2022-07-30T01:03:59;17.00;99.90
16970;DHT22;8601;48.718;8.992;2022-07-30T01:06:26;17.00;99.90
16970;DHT22;8601;48.718;8.992;2022-07-30T01:08:53;17.00;99.90
16970;DHT22;8601;48.718;8.992;2022-07-30T01:11:21;17.10;99.90
16970;DHT22;8601;48.718;8.992;2022-07-30T01:13:50;17.10;99.90
16970;DHT22;8601;48.718;8.992;2022-07-30T01:16:17;17.10;99.90
16970;DHT22;8601;48.718;8.992;2022-07-30T01:18:45;17.10;99.90
16970;DHT22;8601;48.718;8.992;2022-07-30T01:21:35;17.10;99.90
16970;DHT22;8601;48.718;8.992;2022-07-30T01:24:26;17.10;99.90
16970;DHT22;8601;48.718;8.992;2022-07-30T01:26:56;17.10;99.90
16970;DHT22;8601;48.718;8.992;2022-07-30T01:29:24;17.00;99.90
16970;DHT22;8601;48.718;8.992;2022-07-30T01:31:54;17.00;99.90
16970;DHT22;8601;48.718;8.992;2022-07-30T01:34:27;17.00;99.90
16970;DHT22;8601;48.718;8.992;2022-07-30T01:36:55;16.90;99.90
16970;DHT22;8601;48.718;8.992;2022-07-30T01:39:24;16.80;99.90
16970;DHT22;8601;48.718;8.992;2022-07-30T01:41:52;16.80;99.90
16970;DHT22;8601;48.718;8.992;2022-07-30T01:44:22;16.80;99.90
16970;DHT22;8601;48.718;8.992;2022-07-30T01:46:53;16.80;99.90
16970;DHT22;8601;48.718;8.992;2022-07-30T01:49:21;16.70;99.90
16970;DHT22;8601;48.718;8.992;2022-07-30T01:51:50;16.70;99.90
16970;DHT22;8601;48.718;8.992;2022-07-30T01:54:18;16.60;99.90
16970;DHT22;8601;48.718;8.992;2022-07-30T01:56:47;16.50;99.90
16970;DHT22;8601;48.718;8.992;2022-07-30T01:59:17;16.50;99.90
16970;DHT22;8601;48.718;8.992;2022-07-30T02:01:45;16.50;99.90
16970;DHT22;8601;48.718;8.992;2022-07-30T02:04:13;16.40;99.90
16970;DHT22;8601;48.718;8.992;2022-07-30T02:06:44;16.40;99.90
16970;DHT22;8601;48.718;8.992;2022-07-30T02:09:14;16.40;99.90
16970;DHT22;8601;48.718;8.992;2022-07-30T02:11:48;16.40;99.90
16970;DHT22;8601;48.718;8.992;2022-07-30T02:14:38;16.40;99.90
16970;DHT22;8601;48.718;8.992;2022-07-30T02:17:09;16.30;99.90
16970;DHT22;8601;48.718;8.992;2022-07-30T02:19:41;16.30;99.90
16970;DHT22;8601;48.718;8.992;2022-07-30T02:22:12;16.20;99.90
16970;DHT22;8601;48.718;8.992;2022-07-30T02:24:41;16.20;99.90
16970;DHT22;8601;48.718;8.992;2022-07-30T02:27:13;16.10;99.90
16970;DHT22;8601;48.718;8.992;2022-07-30T02:29:42;16.10;99.90
16970;DHT22;8601;48.718;8.992;2022-07-30T02:32:13;16.00;99.90
16970;DHT22;8601;48.718;8.992;2022-07-30T02:34:42;16.00;99.90
16970;DHT22;8601;48.718;8.992;2022-07-30T02:37:13;16.10;99.90
16970;DHT22;8601;48.718;8.992;2022-07-30T02:39:42;16.10;99.90
16970;DHT22;8601;48.718;8.992;2022-07-30T02:42:09;16.10;99.90
16970;DHT22;8601;48.718;8.992;2022-07-30T02:44:41;16.20;99.90
16970;DHT22;8601;48.718;8.992;2022-07-30T02:47:12;16.20;99.90
16970;DHT22;8601;48.718;8.992;2022-07-30T02:49:41;16.30;99.90
16970;DHT22;8601;48.718;8.992;2022-07-30T02:52:10;16.30;99.90
16970;DHT22;8601;48.718;8.992;2022-07-30T02:54:39;16.40;99.90
16970;DHT22;8601;48.718;8.992;2022-07-30T02:57:08;16.50;99.90
16970;DHT22;8601;48.718;8.992;2022-07-30T02:59:37;16.40;99.90
16970;DHT22;8601;48.718;8.992;2022-07-30T03:02:06;16.30;99.90
16970;DHT22;8601;48.718;8.992;2022-07-30T03:04:35;16.20;99.90
16970;DHT22;8601;48.718;8.992;2022-07-30T03:07:04;16.10;99.90
16970;DHT22;8601;48.718;8.992;2022-07-30T03:09:32;16.00;99.90
16970;DHT22;8601;48.718;8.992;2022-07-30T03:12:01;15.90;99.90
16970;DHT22;8601;48.718;8.992;2022-07-30T03:14:29;15.80;99.90
16970;DHT22;8601;48.718;8.992;2022-07-30T03:16:57;15.80;99.90
16970;DHT22;8601;48.718;8.992;2022-07-30T03:19:28;15.80;99.90
16970;DHT22;8601;48.718;8.992;2022-07-30T03:21:59;15.70;99.90
16970;DHT22;8601;48.718;8.992;2022-07-30T03:24:28;15.70;99.90
16970;DHT22;8601;48.718;8.992;2022-07-30T03:26:56;15.80;99.90
16970;DHT22;8601;48.718;8.992;2022-07-30T03:29:25;15.90;99.90
16970;DHT22;8601;48.718;8.992;2022-07-30T03:31:53;15.80;99.90
16970;DHT22;8601;48.718;8.992;2022-07-30T03:34:21;15.70;99.90
16970;DHT22;8601;48.718;8.992;2022-07-30T03:36:49;15.70;99.90
16970;DHT22;8601;48.718;8.992;2022-07-30T03:39:18;15.60;99.90
16970;DHT22;8601;48.718;8.992;2022-07-30T03:41:46;15.60;99.90
16970;DHT22;8601;48.718;8.992;2022-07-30T03:44:14;15.50;99.90
16970;DHT22;8601;48.718;8.992;2022-07-30T03:46:41;15.50;99.90
16970;DHT22;8601;48.718;8.992;2022-07-30T03:49:09;15.50;99.90
16970;DHT22;8601;48.718;8.992;2022-07-30T03:51:36;15.50;99.90
16970;DHT22;8601;48.718;8.992;2022-07-30T03:54:04;15.50;99.90
16970;DHT22;8601;48.718;8.992;2022-07-30T03:56:35;15.50;99.90
16970;DHT22;8601;48.718;8.992;2022-07-30T03:59:03;15.50;99.90
16970;DHT22;8601;48.718;8.992;2022-07-30T04:01:30;15.50;99.90
16970;DHT22;8601;48.718;8.992;2022-07-30T04:04:03;15.30;99.90
16970;DHT22;8601;48.718;8.992;2022-07-30T04:06:31;15.20;99.90
16970;DHT22;8601;48.718;8.992;2022-07-30T04:09:00;15.20;99.90
16970;DHT22;8601;48.718;8.992;2022-07-30T04:11:27;15.20;99.90
16970;DHT22;8601;48.718;8.992;2022-07-30T04:13:56;15.20;99.90
16970;DHT22;8601;48.718;8.992;2022-07-30T04:16:34;15.20;99.90
16970;DHT22;8601;48.718;8.992;2022-07-30T04:19:05;15.20;99.90
16970;DHT22;8601;48.718;8.992;2022-07-30T04:21:35;15.10;99.90
16970;DHT22;8601;48.718;8.992;2022-07-30T04:24:04;15.10;99.90
16970;DHT22;8601;48.718;8.992;2022-07-30T04:26:32;15.20;99.90
16970;DHT22;8601;48.718;8.992;2022-07-30T04:29:03;15.20;99.90
16970;DHT22;8601;48.718;8.992;2022-07-30T04:31:31;15.10;99.90
16970;DHT22;8601;48.718;8.992;2022-07-30T04:34:00;15.10;99.90
16970;DHT22;8601;48.718;8.992;2022-07-30T04:36:27;15.10;99.90
16970;DHT22;8601;48.718;8.992;2022-07-30T04:38:54;15.10;99.90
16970;DHT22;8601;48.718;8.992;2022-07-30T04:41:22;15.00;99.90
16970;DHT22;8601;48.718;8.992;2022-07-30T04:43:49;15.00;99.90
16970;DHT22;8601;48.718;8.992;2022-07-30T04:46:17;14.90;99.90
16970;DHT22;8601;48.718;8.992;2022-07-30T04:48:44;14.90;99.90
16970;DHT22;8601;48.718;8.992;2022-07-30T04:51:14;14.90;99.90
16970;DHT22;8601;48.718;8.992;2022-07-30T04:53:42;15.00;99.90
16970;DHT22;8601;48.718;8.992;2022-07-30T04:56:10;15.10;99.90
16970;DHT22;8601;48.718;8.992;2022-07-30T04:58:38;15.10;99.90
16970;DHT22;8601;48.718;8.992;2022-07-30T05:01:08;15.10;99.90
16970;DHT22;8601;48.718;8.992;2022-07-30T05:03:37;15.20;99.90
16970;DHT22;8601;48.718;8.992;2022-07-30T05:06:05;15.30;99.90
16970;DHT22;8601;48.718;8.992;2022-07-30T05:08:33;15.40;99.90
16970;DHT22;8601;48.718;8.992;2022-07-30T05:11:00;15.50;99.90
16970;DHT22;8601;48.718;8.992;2022-07-30T05:13:27;15.50;99.90
16970;DHT22;8601;48.718;8.992;2022-07-30T05:15:54;15.50;99.90
16970;DHT22;8601;48.718;8.992;2022-07-30T05:18:21;15.50;99.90
16970;DHT22;8601;48.718;8.992;2022-07-30T05:20:49;15.50;99.90
16970;DHT22;8601;48.718;8.992;2022-07-30T05:23:16;15.50;99.90
16970;DHT22;8601;48.718;8.992;2022-07-30T05:25:43;15.50;99.90
16970;DHT22;8601;48.718;8.992;2022-07-30T05:28:10;15.40;99.90
16970;DHT22;8601;48.718;8.992;2022-07-30T05:30:37;15.50;99.90
16970;DHT22;8601;48.718;8.992;2022-07-30T05:33:04;15.60;99.90
16970;DHT22;8601;48.718;8.992;2022-07-30T05:35:33;15.70;99.90
16970;DHT22;8601;48.718;8.992;2022-07-30T05:38:01;15.70;99.90
16970;DHT22;8601;48.718;8.992;2022-07-30T05:40:28;15.80;99.90
16970;DHT22;8601;48.718;8.992;2022-07-30T05:42:55;15.80;99.90
16970;DHT22;8601;48.718;8.992;2022-07-30T05:45:22;15.80;99.90
16970;DHT22;8601;48.718;8.992;2022-07-30T05:47:49;15.80;99.90
16970;DHT22;8601;48.718;8.992;2022-07-30T05:50:16;15.90;99.90
16970;DHT22;8601;48.718;8.992;2022-07-30T05:52:42;15.80;99.90
16970;DHT22;8601;48.718;8.992;2022-07-30T05:55:11;15.90;99.90
16970;DHT22;8601;48.718;8.992;2022-07-30T05:57:38;16.00;99.90
16970;DHT22;8601;48.718;8.992;2022-07-30T06:00:07;16.00;99.90
16970;DHT22;8601;48.718;8.992;2022-07-30T06:02:35;16.20;99.90
16970;DHT22;8601;48.718;8.992;2022-07-30T06:05:04;16.30;99.90
16970;DHT22;8601;48.718;8.992;2022-07-30T06:07:31;16.50;99.90
16970;DHT22;8601;48.718;8.992;2022-07-30T06:09:58;16.70;99.90
16970;DHT22;8601;48.718;8.992;2022-07-30T06:12:28;16.80;99.90
16970;DHT22;8601;48.718;8.992;2022-07-30T06:14:56;16.80;99.90
16970;DHT22;8601;48.718;8.992;2022-07-30T06:17:23;17.00;99.90
16970;DHT22;8601;48.718;8.992;2022-07-30T06:19:50;17.10;99.90
16970;DHT22;8601;48.718;8.992;2022-07-30T06:22:18;17.00;99.90
16970;DHT22;8601;48.718;8.992;2022-07-30T06:24:46;17.20;99.90
16970;DHT22;8601;48.718;8.992;2022-07-30T06:27:13;17.30;99.90
16970;DHT22;8601;48.718;8.992;2022-07-30T06:29:41;17.40;99.90
16970;DHT22;8601;48.718;8.992;2022-07-30T06:32:08;17.60;99.90
16970;DHT22;8601;48.718;8.992;2022-07-30T06:34:35;17.80;99.90
16970;DHT22;8601;48.718;8.992;2022-07-30T06:37:02;17.90;99.90
16970;DHT22;8601;48.718;8.992;2022-07-30T06:39:30;18.00;99.90
16970;DHT22;8601;48.718;8.992;2022-07-30T06:41:57;18.10;99.90
16970;DHT22;8601;48.718;8.992;2022-07-30T06:44:24;18.20;99.90
16970;DHT22;8601;48.718;8.992;2022-07-30T06:46:52;18.40;99.90
16970;DHT22;8601;48.718;8.992;2022-07-30T06:49:19;18.40;99.90
16970;DHT22;8601;48.718;8.992;2022-07-30T06:51:47;18.40;99.90
16970;DHT22;8601;48.718;8.992;2022-07-30T06:54:14;18.60;99.90
16970;DHT22;8601;48.718;8.992;2022-07-30T06:56:42;18.70;99.90
16970;DHT22;8601;48.718;8.992;2022-07-30T06:59:09;18.80;99.90
16970;DHT22;8601;48.718;8.992;2022-07-30T07:01:37;19.00;99.90
16970;DHT22;8601;48.718;8.992;2022-07-30T07:04:05;19.10;99.90
16970;DHT22;8601;48.718;8.992;2022-07-30T07:06:32;19.10;99.90
16970;DHT22;8601;48.718;8.992;2022-07-30T07:08:59;19.40;99.90
16970;DHT22;8601;48.718;8.992;2022-07-30T07:11:26;19.50;99.90
16970;DHT22;8601;48.718;8.992;2022-07-30T07:13:53;19.70;99.90
16970;DHT22;8601;48.718;8.992;2022-07-30T07:16:21;19.70;99.90
16970;DHT22;8601;48.718;8.992;2022-07-30T07:18:49;19.70;99.90
16970;DHT22;8601;48.718;8.992;2022-07-30T07:21:18;19.70;99.90
16970;DHT22;8601;48.718;8.992;2022-07-30T07:23:45;19.70;99.90
16970;DHT22;8601;48.718;8.992;2022-07-30T07:26:13;19.80;99.90
16970;DHT22;8601;48.718;8.992;2022-07-30T07:28:41;19.90;99.10
16970;DHT22;8601;48.718;8.992;2022-07-30T07:31:08;20.00;99.30
16970;DHT22;8601;48.718;8.992;2022-07-30T07:33:36;20.00;97.10
16970;DHT22;8601;48.718;8.992;2022-07-30T07:36:04;20.10;95.60
16970;DHT22;8601;48.718;8.992;2022-07-30T07:38:32;20.10;94.90
16970;DHT22;8601;48.718;8.992;2022-07-30T07:41:01;20.20;96.20
16970;DHT22;8601;48.718;8.992;2022-07-30T07:43:28;20.20;97.20
16970;DHT22;8601;48.718;8.992;2022-07-30T07:45:56;20.20;96.00
16970;DHT22;8601;48.718;8.992;2022-07-30T07:48:24;20.30;96.20
16970;DHT22;8601;48.718;8.992;2022-07-30T07:50:51;20.30;96.90
16970;DHT22;8601;48.718;8.992;2022-07-30T07:53:19;20.30;92.90
16970;DHT22;8601;48.718;8.992;2022-07-30T07:55:47;20.40;91.40
16970;DHT22;8601;48.718;8.992;2022-07-30T07:58:14;20.50;95.20
16970;DHT22;8601;48.718;8.992;2022-07-30T08:00:41;20.50;94.90
16970;DHT22;8601;48.718;8.992;2022-07-30T08:03:08;20.70;91.10
16970;DHT22;8601;48.718;8.992;2022-07-30T08:05:35;20.80;91.30
16970;DHT22;8601;48.718;8.992;2022-07-30T08:08:02;20.90;90.20
16970;DHT22;8601;48.718;8.992;2022-07-30T08:10:29;21.00;91.50
16970;DHT22;8601;48.718;8.992;2022-07-30T08:12:58;21.10;87.80
16970;DHT22;8601;48.718;8.992;2022-07-30T08:15:27;21.10;82.80
16970;DHT22;8601;48.718;8.992;2022-07-30T08:17:53;21.20;85.40
16970;DHT22;8601;48.718;8.992;2022-07-30T08:20:20;21.20;82.40
16970;DHT22;8601;48.718;8.992;2022-07-30T08:22:49;21.30;85.80
16970;DHT22;8601;48.718;8.992;2022-07-30T08:25:16;21.40;81.10
16970;DHT22;8601;48.718;8.992;2022-07-30T08:27:44;21.40;81.90
16970;DHT22;8601;48.718;8.992;2022-07-30T08:30:13;21.40;82.50
16970;DHT22;8601;48.718;8.992;2022-07-30T08:32:40;21.50;82.40
16970;DHT22;8601;48.718;8.992;2022-07-30T08:35:07;21.60;81.00
16970;DHT22;8601;48.718;8.992;2022-07-30T08:37:34;21.70;76.50
16970;DHT22;8601;48.718;8.992;2022-07-30T08:40:02;21.80;77.10
16970;DHT22;8601;48.718;8.992;2022-07-30T08:42:30;21.90;74.30
16970;DHT22;8601;48.718;8.992;2022-07-30T08:44:59;21.90;76.50
16970;DHT22;8601;48.718;8.992;2022-07-30T08:47:31;22.00;79.40
16970;DHT22;8601;48.718;8.992;2022-07-30T08:49:58;22.00;73.00
16970;DHT22;8601;48.718;8.992;2022-07-30T08:52:30;22.20;76.90
16970;DHT22;8601;48.718;8.992;2022-07-30T08:54:57;22.40;73.40
16970;DHT22;8601;48.718;8.992;2022-07-30T08:57:27;22.50;71.70
16970;DHT22;8601;48.718;8.992;2022-07-30T08:59:55;22.60;71.20
16970;DHT22;8601;48.718;8.992;2022-07-30T09:02:22;22.70;70.50
16970;DHT22;8601;48.718;8.992;2022-07-30T09:04:53;22.60;67.90
16970;DHT22;8601;48.718;8.992;2022-07-30T09:07:21;22.90;70.70
16970;DHT22;8601;48.718;8.992;2022-07-30T09:09:48;23.10;71.20
16970;DHT22;8601;48.718;8.992;2022-07-30T09:12:32;23.20;67.90
16970;DHT22;8601;48.718;8.992;2022-07-30T09:15:08;23.30;69.10
16970;DHT22;8601;48.718;8.992;2022-07-30T09:17:46;23.70;71.70
16970;DHT22;8601;48.718;8.992;2022-07-30T09:20:15;23.80;65.10
16970;DHT22;8601;48.718;8.992;2022-07-30T09:22:44;23.90;71.10
16970;DHT22;8601;48.718;8.992;2022-07-30T09:25:11;23.80;64.20
16970;DHT22;8601;48.718;8.992;2022-07-30T09:27:46;23.90;66.50
16970;DHT22;8601;48.718;8.992;2022-07-30T09:30:14;24.10;66.60
16970;DHT22;8601;48.718;8.992;2022-07-30T09:32:48;24.30;68.10
16970;DHT22;8601;48.718;8.992;2022-07-30T09:35:17;24.30;68.60
16970;DHT22;8601;48.718;8.992;2022-07-30T09:37:45;24.50;64.90
16970;DHT22;8601;48.718;8.992;2022-07-30T09:40:14;24.80;71.80
16970;DHT22;8601;48.718;8.992;2022-07-30T09:42:42;24.90;60.20
16970;DHT22;8601;48.718;8.992;2022-07-30T09:45:11;24.70;62.30
16970;DHT22;8601;48.718;8.992;2022-07-30T09:47:40;24.80;59.00
16970;DHT22;8601;48.718;8.992;2022-07-30T09:50:11;25.00;62.10
16970;DHT22;8601;48.718;8.992;2022-07-30T09:52:41;25.30;61.30
16970;DHT22;8601;48.718;8.992;2022-07-30T09:55:09;25.20;57.70
16970;DHT22;8601;48.718;8.992;2022-07-30T09:57:53;24.90;57.10
16970;DHT22;8601;48.718;8.992;2022-07-30T10:00:22;24.90;58.00
16970;DHT22;8601;48.718;8.992;2022-07-30T10:02:51;24.50;59.10
16970;DHT22;8601;48.718;8.992;2022-07-30T10:05:18;25.00;62.20
16970;DHT22;8601;48.718;8.992;2022-07-30T10:07:52;25.30;58.70
16970;DHT22;8601;48.718;8.992;2022-07-30T10:10:21;25.60;63.90
16970;DHT22;8601;48.718;8.992;2022-07-30T10:12:50;25.80;58.40
16970;DHT22;8601;48.718;8.992;2022-07-30T10:15:19;25.80;55.60
16970;DHT22;8601;48.718;8.992;2022-07-30T10:17:46;25.90;60.20
16970;DHT22;8601;48.718;8.992;2022-07-30T10:20:14;26.30;59.20
16970;DHT22;8601;48.718;8.992;2022-07-30T10:22:41;26.20;56.00
16970;DHT22;8601;48.718;8.992;2022-07-30T10:25:10;25.80;55.80
16970;DHT22;8601;48.718;8.992;2022-07-30T10:27:38;25.80;60.10
16970;DHT22;8601;48.718;8.992;2022-07-30T10:30:07;25.60;59.10
16970;DHT22;8601;48.718;8.992;2022-07-30T10:32:36;25.80;56.70
16970;DHT22;8601;48.718;8.992;2022-07-30T10:35:05;25.90;56.90
16970;DHT22;8601;48.718;8.992;2022-07-30T10:37:33;25.80;56.20
16970;DHT22;8601;48.718;8.992;2022-07-30T10:40:05;25.70;56.30
16970;DHT22;8601;48.718;8.992;2022-07-30T10:42:58;26.00;56.00
16970;DHT22;8601;48.718;8.992;2022-07-30T10:45:39;26.10;55.60
16970;DHT22;8601;48.718;8.992;2022-07-30T10:48:10;26.40;54.30
16970;DHT22;8601;48.718;8.992;2022-07-30T10:50:49;26.30;54.40
16970;DHT22;8601;48.718;8.992;2022-07-30T10:53:32;26.50;54.60
16970;DHT22;8601;48.718;8.992;2022-07-30T10:56:14;26.30;52.90
16970;DHT22;8601;48.718;8.992;2022-07-30T10:59:02;25.90;53.30
16970;DHT22;8601;48.718;8.992;2022-07-30T11:02:07;26.00;55.60
16970;DHT22;8601;48.718;8.992;2022-07-30T11:04:35;26.20;54.10
16970;DHT22;8601;48.718;8.992;2022-07-30T11:07:29;26.50;55.90
16970;DHT22;8601;48.718;8.992;2022-07-30T11:09:58;26.70;53.90
16970;DHT22;8601;48.718;8.992;2022-07-30T11:12:56;26.30;54.40
16970;DHT22;8601;48.718;8.992;2022-07-30T11:15:53;26.40;51.70
16970;DHT22;8601;48.718;8.992;2022-07-30T11:18:21;26.80;58.30
16970;DHT22;8601;48.718;8.992;2022-07-30T11:21:17;27.00;52.30
16970;DHT22;8601;48.718;8.992;2022-07-30T11:23:45;26.80;51.70
16970;DHT22;8601;48.718;8.992;2022-07-30T11:26:46;26.70;51.70
16970;DHT22;8601;48.718;8.992;2022-07-30T11:29:32;26.60;50.70
16970;DHT22;8601;48.718;8.992;2022-07-30T11:32:25;26.80;50.50
16970;DHT22;8601;48.718;8.992;2022-07-30T11:35:09;26.30;51.60
16970;DHT22;8601;48.718;8.992;2022-07-30T11:37:59;26.20;56.40
16970;DHT22;8601;48.718;8.992;2022-07-30T11:40:28;26.50;54.20
16970;DHT22;8601;48.718;8.992;2022-07-30T11:43:20;26.60;54.50
16970;DHT22;8601;48.718;8.992;2022-07-30T11:46:05;26.30;53.00
16970;DHT22;8601;48.718;8.992;2022-07-30T11:48:34;26.60;54.80
16970;DHT22;8601;48.718;8.992;2022-07-30T11:51:04;26.80;51.70
16970;DHT22;8601;48.718;8.992;2022-07-30T11:53:31;26.90;56.10
16970;DHT22;8601;48.718;8.992;2022-07-30T11:59:06;27.20;50.30
16970;DHT22;8601;48.718;8.992;2022-07-30T12:01:33;27.20;50.00
16970;DHT22;8601;48.718;8.992;2022-07-30T12:04:03;27.10;48.90
16970;DHT22;8601;48.718;8.992;2022-07-30T12:06:43;27.10;53.20
16970;DHT22;8601;48.718;8.992;2022-07-30T12:09:10;27.40;50.10
16970;DHT22;8601;48.718;8.992;2022-07-30T12:11:37;27.40;49.50
16970;DHT22;8601;48.718;8.992;2022-07-30T12:14:04;27.40;54.30
16970;DHT22;8601;48.718;8.992;2022-07-30T12:16:32;27.80;52.30
16970;DHT22;8601;48.718;8.992;2022-07-30T12:19:11;27.80;50.70
16970;DHT22;8601;48.718;8.992;2022-07-30T12:21:38;27.70;51.90
16970;DHT22;8601;48.718;8.992;2022-07-30T12:24:06;27.50;49.30
16970;DHT22;8601;48.718;8.992;2022-07-30T12:26:34;27.20;47.80
16970;DHT22;8601;48.718;8.992;2022-07-30T12:29:03;27.20;50.70
16970;DHT22;8601;48.718;8.992;2022-07-30T12:31:31;27.10;48.90
16970;DHT22;8601;48.718;8.992;2022-07-30T12:33:58;27.40;47.40
16970;DHT22;8601;48.718;8.992;2022-07-30T12:36:29;27.40;49.30
16970;DHT22;8601;48.718;8.992;2022-07-30T12:38:57;27.50;47.90
16970;DHT22;8601;48.718;8.992;2022-07-30T12:41:42;27.90;50.10
16970;DHT22;8601;48.718;8.992;2022-07-30T12:44:09;27.90;46.70
16970;DHT22;8601;48.718;8.992;2022-07-30T12:46:38;27.70;47.40
16970;DHT22;8601;48.718;8.992;2022-07-30T12:49:06;28.20;48.70
16970;DHT22;8601;48.718;8.992;2022-07-30T12:51:36;28.50;46.80
16970;DHT22;8601;48.718;8.992;2022-07-30T12:54:22;28.50;46.90
16970;DHT22;8601;48.718;8.992;2022-07-30T12:56:57;28.20;48.00
16970;DHT22;8601;48.718;8.992;2022-07-30T12:59:24;28.30;49.10
16970;DHT22;8601;48.718;8.992;2022-07-30T13:01:52;28.40;49.80
16970;DHT22;8601;48.718;8.992;2022-07-30T13:04:20;28.40;47.40
16970;DHT22;8601;48.718;8.992;2022-07-30T13:07:05;28.40;47.90
16970;DHT22;8601;48.718;8.992;2022-07-30T13:09:33;28.10;48.10
16970;DHT22;8601;48.718;8.992;2022-07-30T13:12:11;27.80;49.30
16970;DHT22;8601;48.718;8.992;2022-07-30T13:14:38;27.40;48.70
16970;DHT22;8601;48.718;8.992;2022-07-30T13:17:04;27.20;48.10
16970;DHT22;8601;48.718;8.992;2022-07-30T13:19:34;27.00;50.10
16970;DHT22;8601;48.718;8.992;2022-07-30T13:22:00;26.60;49.00
16970;DHT22;8601;48.718;8.992;2022-07-30T13:24:29;26.90;50.90
16970;DHT22;8601;48.718;8.992;2022-07-30T13:26:58;27.00;49.30
16970;DHT22;8601;48.718;8.992;2022-07-30T13:29:25;27.10;49.30
16970;DHT22;8601;48.718;8.992;2022-07-30T13:31:52;27.30;49.10
16970;DHT22;8601;48.718;8.992;2022-07-30T13:34:19;27.30;51.30
16970;DHT22;8601;48.718;8.992;2022-07-30T13:36:46;27.00;50.20
16970;DHT22;8601;48.718;8.992;2022-07-30T13:39:21;26.80;51.00
16970;DHT22;8601;48.718;8.992;2022-07-30T13:41:49;26.80;49.80
16970;DHT22;8601;48.718;8.992;2022-07-30T13:44:17;26.70;50.30
16970;DHT22;8601;48.718;8.992;2022-07-30T13:46:44;26.50;50.30
16970;DHT22;8601;48.718;8.992;2022-07-30T13:49:11;26.40;51.30
16970;DHT22;8601;48.718;8.992;2022-07-30T13:51:38;26.20;50.10
16970;DHT22;8601;48.718;8.992;2022-07-30T13:54:06;26.30;53.10
16970;DHT22;8601;48.718;8.992;2022-07-30T13:56:33;26.10;53.50
16970;DHT22;8601;48.718;8.992;2022-07-30T13:59:01;26.30;54.00
16970;DHT22;8601;48.718;8.992;2022-07-30T14:01:29;26.70;52.90
16970;DHT22;8601;48.718;8.992;2022-07-30T14:03:56;27.00;50.90
16970;DHT22;8601;48.718;8.992;2022-07-30T14:06:23;27.20;50.40
16970;DHT22;8601;48.718;8.992;2022-07-30T14:08:49;27.50;51.00
16970;DHT22;8601;48.718;8.992;2022-07-30T14:11:16;27.50;49.60
16970;DHT22;8601;48.718;8.992;2022-07-30T14:13:43;27.40;50.10
16970;DHT22;8601;48.718;8.992;2022-07-30T14:16:12;27.70;50.50
16970;DHT22;8601;48.718;8.992;2022-07-30T14:18:45;27.90;48.10
16970;DHT22;8601;48.718;8.992;2022-07-30T14:21:12;27.90;48.20
16970;DHT22;8601;48.718;8.992;2022-07-30T14:23:39;28.10;48.70
16970;DHT22;8601;48.718;8.992;2022-07-30T14:26:06;28.20;47.50
16970;DHT22;8601;48.718;8.992;2022-07-30T14:28:33;28.00;48.00
16970;DHT22;8601;48.718;8.992;2022-07-30T14:31:00;27.60;48.10
16970;DHT22;8601;48.718;8.992;2022-07-30T14:33:53;27.30;51.70
16970;DHT22;8601;48.718;8.992;2022-07-30T14:36:20;27.00;50.90
16970;DHT22;8601;48.718;8.992;2022-07-30T14:38:47;26.90;50.50
16970;DHT22;8601;48.718;8.992;2022-07-30T14:41:26;26.80;51.10
16970;DHT22;8601;48.718;8.992;2022-07-30T14:43:52;26.60;50.40
16970;DHT22;8601;48.718;8.992;2022-07-30T14:46:20;26.70;52.50
16970;DHT22;8601;48.718;8.992;2022-07-30T14:48:48;26.60;50.90
16970;DHT22;8601;48.718;8.992;2022-07-30T14:51:40;26.60;54.70
16970;DHT22;8601;48.718;8.992;2022-07-30T14:54:07;26.40;51.20
16970;DHT22;8601;48.718;8.992;2022-07-30T14:56:36;26.50;51.40
16970;DHT22;8601;48.718;8.992;2022-07-30T14:59:03;26.90;49.60
16970;DHT22;8601;48.718;8.992;2022-07-30T15:01:30;27.20;52.10
16970;DHT22;8601;48.718;8.992;2022-07-30T15:03:58;27.20;50.10
16970;DHT22;8601;48.718;8.992;2022-07-30T15:06:25;26.90;48.20
16970;DHT22;8601;48.718;8.992;2022-07-30T15:08:53;26.80;50.40
16970;DHT22;8601;48.718;8.992;2022-07-30T15:11:20;26.50;50.60
16970;DHT22;8601;48.718;8.992;2022-07-30T15:13:47;26.40;52.90
16970;DHT22;8601;48.718;8.992;2022-07-30T15:16:14;26.30;51.00
16970;DHT22;8601;48.718;8.992;2022-07-30T15:18:41;26.20;51.30
16970;DHT22;8601;48.718;8.992;2022-07-30T15:21:09;26.00;51.80
16970;DHT22;8601;48.718;8.992;2022-07-30T15:23:37;26.00;53.20
16970;DHT22;8601;48.718;8.992;2022-07-30T15:29:28;25.80;53.20
16970;DHT22;8601;48.718;8.992;2022-07-30T15:31:56;26.10;52.20
16970;DHT22;8601;48.718;8.992;2022-07-30T15:34:24;26.40;52.70
16970;DHT22;8601;48.718;8.992;2022-07-30T15:36:52;26.70;50.40
16970;DHT22;8601;48.718;8.992;2022-07-30T15:39:20;26.60;52.10
16970;DHT22;8601;48.718;8.992;2022-07-30T15:41:47;26.50;57.20
16970;DHT22;8601;48.718;8.992;2022-07-30T15:44:17;26.30;52.50
16970;DHT22;8601;48.718;8.992;2022-07-30T15:46:45;26.50;53.10
16970;DHT22;8601;48.718;8.992;2022-07-30T15:49:12;26.50;50.20
16970;DHT22;8601;48.718;8.992;2022-07-30T15:51:39;26.30;56.30
16970;DHT22;8601;48.718;8.992;2022-07-30T15:54:12;26.10;54.30
16970;DHT22;8601;48.718;8.992;2022-07-30T15:56:39;26.00;57.60
16970;DHT22;8601;48.718;8.992;2022-07-30T15:59:06;26.10;53.40
16970;DHT22;8601;48.718;8.992;2022-07-30T16:01:33;26.40;53.60
16970;DHT22;8601;48.718;8.992;2022-07-30T16:04:01;26.70;55.80
16970;DHT22;8601;48.718;8.992;2022-07-30T16:06:28;26.90;56.80
16970;DHT22;8601;48.718;8.992;2022-07-30T16:09:24;26.90;51.20